Jasper, New York
Current Conditions -  °F | °C
As of 10:56 PM on Wednesday 22 Oct 2014 (Local Time) from KELZ Reporting Station
Overcast Overcast  
Wind Chill: 37°   Ceiling: 200
Heat Index: 42°   Visibility: 10mi
Dew Point: 40°   Wind: 9mph
Humidity: 92%   Direction: 350°N
Pressure: 30.12"   Gusts: NA
Location:  42.12°N, 77.5°W
Report Text: KELZ 230256Z AUTO 35008KT 320V020 10SM OVC002 06/04 A3012 RMK AO2 SLP214 T00560044 58009
Loading
Personal Weather Stations






























Interactive Weather Map
Tropical Storm Tracking
New forecast layout! Learn more

10-Day Weather Forecast

Advertisements
Track Severe Weather on mobile